createdAt,value
2023-02-15T00:02:07.473Z,6.80
2023-02-15T00:04:50.104Z,6.80
2023-02-15T00:07:19.602Z,6.80
2023-02-15T00:09:48.132Z,6.80
2023-02-15T00:12:16.727Z,6.80
2023-02-15T00:14:44.478Z,6.80
2023-02-15T00:17:11.825Z,6.70
2023-02-15T00:19:39.466Z,6.70
2023-02-15T00:22:07.133Z,6.60
2023-02-15T00:24:34.469Z,6.70
2023-02-15T00:27:01.867Z,6.60
2023-02-15T00:29:29.464Z,6.60
2023-02-15T00:31:57.076Z,6.60
2023-02-15T00:34:26.631Z,6.60
2023-02-15T00:36:54.174Z,6.60
2023-02-15T00:39:22.365Z,6.60
2023-02-15T00:41:49.975Z,6.60
2023-02-15T00:44:17.575Z,6.60
2023-02-15T00:46:45.071Z,6.60
2023-02-15T00:49:12.469Z,6.60
2023-02-15T00:51:40.512Z,6.60
2023-02-15T00:54:08.714Z,6.60
2023-02-15T00:56:36.082Z,6.60
2023-02-15T00:59:03.766Z,6.60
2023-02-15T01:01:31.352Z,6.60
2023-02-15T01:03:58.971Z,6.50
2023-02-15T01:06:26.590Z,6.50
2023-02-15T01:08:54.128Z,6.50
2023-02-15T01:11:23.741Z,6.50
2023-02-15T01:14:00.644Z,6.50
2023-02-15T01:16:29.522Z,6.50
2023-02-15T01:18:57.764Z,6.50
2023-02-15T01:21:27.787Z,6.50
2023-02-15T01:23:56.490Z,6.50
2023-02-15T01:26:24.245Z,6.50
2023-02-15T01:28:52.485Z,6.50
2023-02-15T01:31:22.002Z,6.60
2023-02-15T01:33:50.034Z,6.50
2023-02-15T01:36:18.427Z,6.50
2023-02-15T01:38:46.605Z,6.50
2023-02-15T01:41:28.158Z,6.50
2023-02-15T01:44:00.933Z,6.50
2023-02-15T01:46:53.175Z,6.50
2023-02-15T01:49:24.359Z,6.50
2023-02-15T01:51:53.938Z,6.40
2023-02-15T01:54:33.593Z,6.50
2023-02-15T01:57:06.773Z,6.50
2023-02-15T01:59:37.312Z,6.50
2023-02-15T02:02:07.612Z,6.40
2023-02-15T02:04:49.961Z,6.40
2023-02-15T02:07:20.874Z,6.40
2023-02-15T02:09:49.575Z,6.40
2023-02-15T02:12:19.212Z,6.40
2023-02-15T02:14:47.963Z,6.40
2023-02-15T02:17:51.161Z,6.40
2023-02-15T02:20:31.110Z,6.40
2023-02-15T02:23:09.696Z,6.40
2023-02-15T02:26:09.060Z,6.40
2023-02-15T02:28:54.974Z,6.40
2023-02-15T02:31:59.855Z,6.50
2023-02-15T02:34:52.013Z,6.50
2023-02-15T02:37:47.004Z,6.50
2023-02-15T02:40:17.415Z,6.50
2023-02-15T02:42:51.254Z,6.50
2023-02-15T02:45:29.416Z,6.50
2023-02-15T02:48:06.811Z,6.40
2023-02-15T02:50:34.706Z,6.40
2023-02-15T02:53:02.249Z,6.40
2023-02-15T02:55:47.210Z,6.30
2023-02-15T02:58:45.658Z,6.30
2023-02-15T03:01:20.966Z,6.20
2023-02-15T03:03:50.818Z,6.20
2023-02-15T03:06:50.719Z,6.20
2023-02-15T03:09:35.696Z,6.10
2023-02-15T03:12:06.566Z,6.10
2023-02-15T03:14:34.213Z,6.00
2023-02-15T03:17:03.620Z,6.00
2023-02-15T03:19:35.853Z,5.90
2023-02-15T03:22:14.468Z,5.90
2023-02-15T03:25:03.615Z,5.90
2023-02-15T03:27:40.459Z,5.90
2023-02-15T03:30:09.988Z,5.90
2023-02-15T03:32:40.076Z,5.90
2023-02-15T03:35:08.296Z,5.90
2023-02-15T03:37:48.945Z,5.90
2023-02-15T03:40:40.113Z,5.80
2023-02-15T03:43:39.614Z,5.80
2023-02-15T03:46:13.254Z,5.80
2023-02-15T03:48:48.115Z,5.70
2023-02-15T03:51:35.186Z,5.70
2023-02-15T03:54:05.521Z,5.70
2023-02-15T03:56:35.814Z,5.60
2023-02-15T03:59:22.453Z,5.60
2023-02-15T04:01:58.476Z,5.60
2023-02-15T04:04:39.480Z,5.60
2023-02-15T04:07:09.366Z,5.60
2023-02-15T04:09:55.773Z,5.60
2023-02-15T04:12:23.709Z,5.50
2023-02-15T04:15:09.409Z,5.60
2023-02-15T04:17:38.672Z,5.50
2023-02-15T04:20:25.217Z,5.50
2023-02-15T04:23:11.124Z,5.50
2023-02-15T04:25:38.605Z,5.50
2023-02-15T04:28:06.755Z,5.50
2023-02-15T04:30:34.316Z,5.50
2023-02-15T04:33:01.650Z,5.50
2023-02-15T04:35:29.065Z,5.50
2023-02-15T04:37:56.913Z,5.50
2023-02-15T04:40:24.353Z,5.50
2023-02-15T04:42:51.801Z,5.50
2023-02-15T04:45:19.468Z,5.50
2023-02-15T04:47:47.096Z,5.50
2023-02-15T04:50:14.555Z,5.50
2023-02-15T04:52:42.105Z,5.60
2023-02-15T04:55:09.819Z,5.50
2023-02-15T04:57:37.164Z,5.50
2023-02-15T05:00:04.902Z,5.60
2023-02-15T05:02:32.501Z,5.60
2023-02-15T05:04:59.830Z,5.60
2023-02-15T05:07:27.051Z,5.60
2023-02-15T05:09:54.937Z,5.60
2023-02-15T05:12:22.506Z,5.60
2023-02-15T05:14:49.808Z,5.60
2023-02-15T05:17:17.252Z,5.60
2023-02-15T05:19:44.799Z,5.60
2023-02-15T05:22:12.050Z,5.60
2023-02-15T05:24:57.554Z,5.60
2023-02-15T05:27:44.457Z,5.60
2023-02-15T05:30:13.056Z,5.50
2023-02-15T05:32:40.770Z,5.50
2023-02-15T05:35:08.763Z,5.50
2023-02-15T05:37:36.314Z,5.50
2023-02-15T05:40:03.946Z,5.50
2023-02-15T05:42:31.959Z,5.50
2023-02-15T05:44:59.599Z,5.60
2023-02-15T05:47:27.112Z,5.60
2023-02-15T05:49:54.600Z,5.60
2023-02-15T05:52:22.616Z,5.60
2023-02-15T05:54:50.097Z,5.60
2023-02-15T05:57:17.549Z,5.60
2023-02-15T05:59:44.800Z,5.50
2023-02-15T06:02:12.582Z,5.50
2023-02-15T06:04:40.217Z,5.50
2023-02-15T06:07:07.483Z,5.50
2023-02-15T06:09:34.679Z,5.50
2023-02-15T06:12:02.262Z,5.50
2023-02-15T06:14:29.791Z,5.40
2023-02-15T06:16:57.359Z,5.40
2023-02-15T06:19:24.907Z,5.40
2023-02-15T06:21:52.465Z,5.40
2023-02-15T06:24:19.902Z,5.40
2023-02-15T06:26:47.407Z,5.40
2023-02-15T06:29:15.052Z,5.40
2023-02-15T06:31:42.430Z,5.40
2023-02-15T06:34:09.910Z,5.40
2023-02-15T06:36:37.847Z,5.50
2023-02-15T06:39:05.562Z,5.60
2023-02-15T06:41:32.897Z,5.60
2023-02-15T06:44:00.509Z,5.70
2023-02-15T06:46:28.137Z,5.70
2023-02-15T06:48:55.646Z,5.70
2023-02-15T06:51:22.908Z,5.60
2023-02-15T06:53:50.259Z,5.60
2023-02-15T06:56:17.709Z,5.60
2023-02-15T06:58:46.971Z,5.50
2023-02-15T07:01:14.463Z,5.50
2023-02-15T07:03:42.057Z,5.50
2023-02-15T07:06:11.617Z,5.50
2023-02-15T07:08:40.359Z,5.40
2023-02-15T07:11:26.973Z,5.40
2023-02-15T07:13:54.599Z,5.30
2023-02-15T07:16:22.304Z,5.30
2023-02-15T07:18:49.796Z,5.30
2023-02-15T07:21:17.396Z,5.30
2023-02-15T07:23:45.847Z,5.40
2023-02-15T07:26:13.245Z,5.30
2023-02-15T07:28:40.803Z,5.30
2023-02-15T07:31:08.208Z,5.40
2023-02-15T07:33:36.002Z,5.40
2023-02-15T07:36:05.281Z,5.30
2023-02-15T07:38:35.292Z,5.30
2023-02-15T07:41:04.787Z,5.30
2023-02-15T07:43:35.024Z,5.30
2023-02-15T07:46:05.465Z,5.30
2023-02-15T07:48:33.104Z,5.30
2023-02-15T07:51:06.395Z,5.40
2023-02-15T07:53:34.428Z,5.40
2023-02-15T07:56:08.549Z,5.50
2023-02-15T07:58:56.621Z,5.50
2023-02-15T08:01:27.843Z,5.60
2023-02-15T08:03:55.962Z,5.70
2023-02-15T08:06:26.538Z,5.80
2023-02-15T08:08:55.212Z,5.80
2023-02-15T08:11:34.487Z,5.90
2023-02-15T08:14:10.929Z,6.00
2023-02-15T08:16:47.391Z,6.10
2023-02-15T08:19:18.602Z,6.20
2023-02-15T08:21:50.644Z,6.30
2023-02-15T08:24:23.099Z,6.40
2023-02-15T08:26:53.990Z,6.50
2023-02-15T08:29:29.228Z,6.60
2023-02-15T08:32:03.098Z,6.80
2023-02-15T08:34:33.302Z,6.90
2023-02-15T08:37:01.648Z,6.90
2023-02-15T08:39:29.768Z,7.00
2023-02-15T08:41:57.110Z,7.10
2023-02-15T08:44:24.798Z,7.10
2023-02-15T08:46:52.515Z,7.30
2023-02-15T08:49:21.959Z,7.30
2023-02-15T08:51:50.165Z,7.30
2023-02-15T08:54:21.013Z,7.40
2023-02-15T08:56:48.531Z,7.50
2023-02-15T08:59:21.467Z,7.60
2023-02-15T09:01:51.297Z,7.70
2023-02-15T09:04:19.061Z,7.70
2023-02-15T09:06:49.769Z,7.80
2023-02-15T09:09:19.441Z,7.90
2023-02-15T09:11:52.946Z,8.10
2023-02-15T09:14:24.997Z,8.10
2023-02-15T09:16:53.923Z,8.20
2023-02-15T09:19:23.898Z,8.30
2023-02-15T09:21:52.644Z,8.30
2023-02-15T09:24:20.679Z,8.40
2023-02-15T09:26:49.588Z,8.40
2023-02-15T09:29:20.649Z,8.40
2023-02-15T09:31:51.740Z,8.40
2023-02-15T09:34:22.815Z,8.50
2023-02-15T09:36:51.382Z,8.50
2023-02-15T09:39:27.995Z,8.60
2023-02-15T09:42:24.251Z,8.60
2023-02-15T09:45:18.800Z,8.70
2023-02-15T09:47:53.019Z,8.80
2023-02-15T09:50:51.813Z,8.90
2023-02-15T09:53:40.891Z,9.00
2023-02-15T09:56:28.552Z,9.10
2023-02-15T09:59:11.533Z,9.20
2023-02-15T10:02:19.235Z,9.20
2023-02-15T10:05:02.442Z,9.20
2023-02-15T10:07:42.763Z,9.20
2023-02-15T10:10:49.124Z,9.20
2023-02-15T10:13:46.364Z,9.30
2023-02-15T10:16:39.036Z,9.40
2023-02-15T10:19:52.988Z,9.40
2023-02-15T10:22:54.827Z,9.50
2023-02-15T10:25:33.693Z,9.50
2023-02-15T10:28:17.383Z,9.70
2023-02-15T10:30:51.617Z,9.70
2023-02-15T10:33:28.865Z,9.80
2023-02-15T10:36:23.882Z,10.00
2023-02-15T10:38:58.714Z,10.00
2023-02-15T10:41:50.794Z,10.10
2023-02-15T10:44:18.347Z,10.30
2023-02-15T10:47:16.904Z,10.40
2023-02-15T10:50:08.007Z,10.40
2023-02-15T10:52:55.665Z,10.50
2023-02-15T10:55:37.783Z,10.60
2023-02-15T10:58:25.769Z,10.60
2023-02-15T11:01:05.896Z,10.60
2023-02-15T11:04:08.980Z,10.70
2023-02-15T11:06:40.197Z,10.80
2023-02-15T11:09:12.799Z,10.80
2023-02-15T11:11:45.864Z,10.80
2023-02-15T11:14:21.464Z,10.90
2023-02-15T11:16:57.004Z,10.90
2023-02-15T11:19:32.539Z,11.00
2023-02-15T11:22:04.547Z,11.10
2023-02-15T11:24:37.192Z,11.20
2023-02-15T11:27:18.194Z,11.30
2023-02-15T11:30:04.695Z,11.40
2023-02-15T11:32:45.645Z,11.50
2023-02-15T11:35:31.250Z,11.50
2023-02-15T11:38:18.995Z,11.60
2023-02-15T11:40:59.945Z,11.70
2023-02-15T11:43:39.144Z,11.60
2023-02-15T11:46:10.224Z,11.60
2023-02-15T11:48:40.058Z,11.70
2023-02-15T11:51:26.107Z,11.80
2023-02-15T11:53:57.706Z,11.80
2023-02-15T11:56:28.947Z,11.90
2023-02-15T11:59:12.795Z,12.00
2023-02-15T12:01:46.320Z,12.10
2023-02-15T12:04:17.952Z,12.20
2023-02-15T12:07:02.315Z,12.30
2023-02-15T12:09:38.282Z,12.40
2023-02-15T12:12:33.894Z,12.40
2023-02-15T12:15:09.040Z,12.50
2023-02-15T12:18:04.286Z,12.60
2023-02-15T12:20:37.640Z,12.60
2023-02-15T12:23:12.978Z,12.60
2023-02-15T12:25:43.044Z,12.70
2023-02-15T12:28:31.740Z,12.80
2023-02-15T12:31:02.697Z,12.90
2023-02-15T12:33:37.184Z,13.20
2023-02-15T12:36:21.030Z,13.80
2023-02-15T12:39:24.706Z,14.40
2023-02-15T12:41:55.199Z,14.90
2023-02-15T12:44:27.960Z,15.20
2023-02-15T12:47:08.255Z,15.50
2023-02-15T12:49:38.091Z,15.60
2023-02-15T12:52:19.142Z,15.80
2023-02-15T12:54:47.540Z,15.90
2023-02-15T12:57:29.247Z,16.10
2023-02-15T13:00:28.397Z,16.20
2023-02-15T13:03:00.390Z,16.30
2023-02-15T13:05:37.528Z,16.40
2023-02-15T13:08:25.109Z,16.50
2023-02-15T13:11:10.101Z,16.50
2023-02-15T13:13:59.641Z,16.90
2023-02-15T13:16:34.883Z,16.90
2023-02-15T13:19:13.644Z,16.90
2023-02-15T13:21:45.208Z,17.00
2023-02-15T13:24:40.737Z,17.20
2023-02-15T13:27:16.537Z,17.40
2023-02-15T13:29:54.593Z,17.30
2023-02-15T13:32:32.185Z,17.40
2023-02-15T13:35:03.522Z,17.60
2023-02-15T13:38:08.551Z,17.60
2023-02-15T13:41:19.514Z,17.70
2023-02-15T13:44:04.387Z,17.60
2023-02-15T13:46:47.191Z,17.30
2023-02-15T13:50:04.371Z,17.30
2023-02-15T13:53:02.797Z,17.20
2023-02-15T13:55:57.484Z,17.30
2023-02-15T13:58:55.005Z,17.70
2023-02-15T14:01:49.199Z,18.00
2023-02-15T14:04:42.368Z,18.10
2023-02-15T14:07:35.420Z,17.70
2023-02-15T14:10:42.680Z,16.80
2023-02-15T14:13:44.650Z,16.00
2023-02-15T14:16:35.200Z,15.70
2023-02-15T14:19:22.977Z,15.50
2023-02-15T14:22:18.375Z,15.30
2023-02-15T14:24:51.688Z,15.20
2023-02-15T14:28:02.468Z,15.10
2023-02-15T14:30:42.132Z,15.10
2023-02-15T14:33:37.362Z,15.10
2023-02-15T14:36:12.737Z,15.00
2023-02-15T14:38:59.375Z,15.00
2023-02-15T14:42:05.843Z,15.00
2023-02-15T14:45:17.530Z,15.00
2023-02-15T14:48:23.528Z,15.00
2023-02-15T14:50:51.778Z,15.00
2023-02-15T14:53:39.950Z,15.00
2023-02-15T14:56:22.577Z,15.00
2023-02-15T14:59:21.455Z,15.00
2023-02-15T15:02:05.590Z,15.00
2023-02-15T15:04:35.638Z,14.90
2023-02-15T15:07:25.732Z,14.90
2023-02-15T15:10:17.119Z,14.90
2023-02-15T15:12:48.440Z,14.90
2023-02-15T15:15:55.165Z,14.90
2023-02-15T15:18:46.185Z,14.90
2023-02-15T15:21:51.820Z,14.80
2023-02-15T15:24:38.217Z,14.80
2023-02-15T15:27:41.444Z,14.90
2023-02-15T15:30:16.704Z,14.80
2023-02-15T15:32:57.769Z,14.80
2023-02-15T15:35:47.669Z,14.80
2023-02-15T15:38:35.446Z,14.70
2023-02-15T15:41:35.658Z,14.70
2023-02-15T15:44:33.614Z,14.70
2023-02-15T15:47:06.564Z,14.70
2023-02-15T15:49:40.938Z,14.60
2023-02-15T15:52:20.159Z,14.50
2023-02-15T15:54:57.394Z,14.40
2023-02-15T15:57:47.117Z,14.50
2023-02-15T16:00:49.485Z,14.40
2023-02-15T16:03:25.760Z,14.40
2023-02-15T16:05:56.486Z,14.30
2023-02-15T16:08:34.038Z,14.30
2023-02-15T16:11:12.140Z,14.30
2023-02-15T16:13:45.358Z,14.20
2023-02-15T16:16:22.357Z,14.20
2023-02-15T16:18:52.431Z,14.10
2023-02-15T16:21:28.371Z,14.10
2023-02-15T16:24:18.676Z,14.00
2023-02-15T16:27:10.010Z,14.00
2023-02-15T16:29:38.271Z,13.90
2023-02-15T16:32:27.274Z,13.80
2023-02-15T16:35:01.582Z,13.80
2023-02-15T16:37:36.165Z,13.80
2023-02-15T16:40:05.118Z,13.70
2023-02-15T16:42:35.283Z,13.60
2023-02-15T16:45:15.026Z,13.60
2023-02-15T16:47:48.026Z,13.60
2023-02-15T16:50:25.515Z,13.50
2023-02-15T16:52:55.015Z,13.50
2023-02-15T16:55:40.802Z,13.50
2023-02-15T16:58:18.474Z,13.40
2023-02-15T17:00:47.083Z,13.40
2023-02-15T17:03:14.798Z,13.30
2023-02-15T17:06:04.166Z,13.30
2023-02-15T17:08:35.848Z,13.20
2023-02-15T17:11:22.680Z,13.20
2023-02-15T17:14:05.172Z,13.10
2023-02-15T17:16:50.160Z,13.10
2023-02-15T17:19:23.791Z,13.10
2023-02-15T17:21:59.324Z,13.00
2023-02-15T17:24:43.522Z,13.00
2023-02-15T17:27:21.176Z,12.90
2023-02-15T17:29:53.206Z,12.90
2023-02-15T17:32:24.692Z,12.80
2023-02-15T17:35:18.432Z,12.80
2023-02-15T17:38:06.081Z,12.80
2023-02-15T17:40:35.975Z,12.70
2023-02-15T17:43:03.979Z,12.70
2023-02-15T17:45:39.395Z,12.70
2023-02-15T17:48:07.570Z,12.60
2023-02-15T17:50:36.823Z,12.60
2023-02-15T17:53:05.437Z,12.60
2023-02-15T17:55:35.744Z,12.60
2023-02-15T17:58:10.289Z,12.60
2023-02-15T18:01:01.722Z,12.60
2023-02-15T18:04:10.706Z,12.50
2023-02-15T18:07:01.074Z,12.50
2023-02-15T18:09:47.764Z,12.50
2023-02-15T18:12:33.579Z,12.50
2023-02-15T18:15:01.801Z,12.50
2023-02-15T18:17:42.783Z,12.50
2023-02-15T18:20:25.052Z,12.40
2023-02-15T18:22:54.568Z,12.40
2023-02-15T18:25:25.566Z,12.40
2023-02-15T18:27:55.279Z,12.30
2023-02-15T18:30:26.757Z,12.40
2023-02-15T18:32:57.152Z,12.40
2023-02-15T18:35:30.279Z,12.40
2023-02-15T18:37:59.170Z,12.30
2023-02-15T18:40:28.776Z,12.30
2023-02-15T18:42:57.816Z,12.20
2023-02-15T18:45:33.292Z,12.20
2023-02-15T18:48:01.494Z,12.20
2023-02-15T18:50:33.383Z,12.20
2023-02-15T18:53:04.114Z,12.20
2023-02-15T18:55:35.466Z,12.10
2023-02-15T18:58:03.749Z,12.10
2023-02-15T19:00:37.117Z,12.10
2023-02-15T19:03:07.796Z,12.00
2023-02-15T19:05:36.071Z,12.10
2023-02-15T19:08:04.047Z,12.10
2023-02-15T19:10:33.873Z,12.00
2023-02-15T19:13:03.070Z,12.00
2023-02-15T19:15:33.486Z,11.90
2023-02-15T19:18:07.071Z,11.90
2023-02-15T19:20:46.388Z,11.90
2023-02-15T19:23:23.787Z,11.80
2023-02-15T19:25:56.667Z,11.80
2023-02-15T19:28:32.475Z,11.70
2023-02-15T19:31:00.093Z,11.70
2023-02-15T19:33:28.400Z,11.60
2023-02-15T19:35:58.480Z,11.60
2023-02-15T19:38:37.426Z,11.60
2023-02-15T19:41:09.120Z,11.60
2023-02-15T19:43:38.272Z,11.50
2023-02-15T19:46:07.061Z,11.50
2023-02-15T19:48:37.053Z,11.50
2023-02-15T19:51:04.858Z,11.40
2023-02-15T19:53:32.478Z,11.40
2023-02-15T19:56:00.167Z,11.40
2023-02-15T19:58:28.932Z,11.40
2023-02-15T20:00:56.863Z,11.30
2023-02-15T20:03:24.192Z,11.40
2023-02-15T20:05:52.866Z,11.30
2023-02-15T20:08:23.961Z,11.30
2023-02-15T20:10:53.032Z,11.20
2023-02-15T20:13:24.629Z,11.20
2023-02-15T20:16:00.110Z,11.20
2023-02-15T20:18:28.076Z,11.20
2023-02-15T20:20:56.659Z,11.20
2023-02-15T20:23:30.460Z,11.20
2023-02-15T20:26:03.798Z,11.10
2023-02-15T20:28:31.973Z,11.10
2023-02-15T20:30:59.700Z,11.10
2023-02-15T20:33:27.518Z,11.10
2023-02-15T20:35:55.177Z,11.00
2023-02-15T20:38:28.919Z,11.00
2023-02-15T20:41:17.178Z,11.00
2023-02-15T20:43:45.045Z,11.00
2023-02-15T20:46:12.675Z,11.00
2023-02-15T20:48:40.565Z,10.90
2023-02-15T20:51:17.371Z,11.00
2023-02-15T20:53:45.576Z,10.90
2023-02-15T20:56:24.429Z,10.90
2023-02-15T20:58:52.925Z,11.00
2023-02-15T21:01:20.961Z,10.90
2023-02-15T21:03:49.337Z,10.90
2023-02-15T21:06:20.128Z,11.00
2023-02-15T21:08:48.693Z,10.90
2023-02-15T21:11:23.340Z,10.90
2023-02-15T21:13:51.360Z,10.90
2023-02-15T21:16:19.917Z,10.90
2023-02-15T21:18:47.570Z,10.90
2023-02-15T21:21:22.386Z,10.90
2023-02-15T21:23:51.824Z,10.90
2023-02-15T21:26:24.076Z,10.90
2023-02-15T21:28:52.032Z,11.00
2023-02-15T21:31:25.795Z,10.90
2023-02-15T21:33:53.668Z,10.90
2023-02-15T21:36:25.018Z,11.00
2023-02-15T21:38:53.884Z,11.00
2023-02-15T21:41:42.141Z,11.00
2023-02-15T21:44:37.718Z,11.00
2023-02-15T21:47:24.870Z,11.00
2023-02-15T21:49:52.977Z,11.00
2023-02-15T21:52:23.499Z,11.00
2023-02-15T21:54:51.199Z,11.00
2023-02-15T21:57:21.822Z,11.00
2023-02-15T21:59:49.585Z,11.00
2023-02-15T22:02:28.971Z,11.00
2023-02-15T22:04:58.083Z,11.00
2023-02-15T22:07:25.708Z,11.00
2023-02-15T22:09:54.431Z,11.00
2023-02-15T22:12:22.578Z,11.10
2023-02-15T22:14:53.814Z,11.00
2023-02-15T22:17:30.845Z,11.00
2023-02-15T22:19:58.706Z,11.00
2023-02-15T22:22:26.269Z,11.00
2023-02-15T22:24:53.509Z,11.00
2023-02-15T22:27:26.626Z,11.00
2023-02-15T22:29:55.154Z,11.00
2023-02-15T22:32:25.568Z,11.00
2023-02-15T22:34:54.086Z,11.00
2023-02-15T22:37:21.725Z,10.90
2023-02-15T22:39:49.105Z,10.90
2023-02-15T22:42:28.026Z,10.90
2023-02-15T22:44:57.154Z,10.90
2023-02-15T22:47:28.080Z,10.90
2023-02-15T22:49:55.775Z,10.90
2023-02-15T22:52:23.565Z,10.90
2023-02-15T22:54:51.114Z,10.90
2023-02-15T22:57:32.252Z,10.90
2023-02-15T23:00:01.320Z,10.90
2023-02-15T23:02:29.061Z,10.90
2023-02-15T23:04:56.471Z,10.90
2023-02-15T23:07:24.104Z,10.90
2023-02-15T23:09:51.700Z,10.80
2023-02-15T23:12:26.074Z,10.80
2023-02-15T23:14:54.569Z,10.80
2023-02-15T23:17:22.350Z,10.80
2023-02-15T23:19:49.906Z,10.90
2023-02-15T23:22:18.602Z,10.90
2023-02-15T23:24:52.708Z,10.80
2023-02-15T23:27:38.702Z,10.80
2023-02-15T23:30:14.250Z,10.80
2023-02-15T23:32:41.903Z,10.80
2023-02-15T23:35:17.109Z,10.80
2023-02-15T23:37:45.070Z,10.80
2023-02-15T23:40:40.054Z,10.70
2023-02-15T23:43:14.049Z,10.70
2023-02-15T23:45:41.586Z,10.70
2023-02-15T23:48:30.457Z,10.60
2023-02-15T23:50:59.362Z,10.50
2023-02-15T23:53:26.807Z,10.40
2023-02-15T23:55:54.545Z,10.40
2023-02-15T23:58:25.965Z,10.30
